sensor_id;sensor_type;location;lat;lon;timestamp;pressure;altitude;pressure_sealevel;temperature;humidity
5780;BME280;2916;49.798;10.022;2022-09-17T00:01:21;146652.44;;;9.57;91.13
5780;BME280;2916;49.798;10.022;2022-09-17T00:03:51;146646.22;;;9.54;90.70
5780;BME280;2916;49.798;10.022;2022-09-17T00:06:21;146637.53;;;9.51;91.40
5780;BME280;2916;49.798;10.022;2022-09-17T00:08:51;146623.91;;;9.45;90.79
5780;BME280;2916;49.798;10.022;2022-09-17T00:11:23;146614.00;;;9.41;91.86
5780;BME280;2916;49.798;10.022;2022-09-17T00:13:51;146626.38;;;9.46;91.35
5780;BME280;2916;49.798;10.022;2022-09-17T00:16:28;146627.63;;;9.47;91.03
5780;BME280;2916;49.798;10.022;2022-09-17T00:18:57;146635.06;;;9.50;90.61
5780;BME280;2916;49.798;10.022;2022-09-17T00:21:25;146637.53;;;9.51;90.43
5780;BME280;2916;49.798;10.022;2022-09-17T00:23:55;146644.97;;;9.54;90.83
5780;BME280;2916;49.798;10.022;2022-09-17T00:26:23;146642.50;;;9.53;90.12
5780;BME280;2916;49.798;10.022;2022-09-17T00:28:52;146630.13;;;9.48;91.19
5780;BME280;2916;49.798;10.022;2022-09-17T00:31:21;146558.19;;;9.18;89.49
5780;BME280;2916;49.798;10.022;2022-09-17T00:33:49;146618.97;;;9.43;89.85
5780;BME280;2916;49.798;10.022;2022-09-17T00:36:16;146625.16;;;9.46;90.18
5780;BME280;2916;49.798;10.022;2022-09-17T00:38:48;146620.22;;;9.44;90.15
5780;BME280;2916;49.798;10.022;2022-09-17T00:41:20;146626.38;;;9.46;90.88
5780;BME280;2916;49.798;10.022;2022-09-17T00:43:50;146605.31;;;9.38;90.67
5780;BME280;2916;49.798;10.022;2022-09-17T00:46:30;146623.91;;;9.45;91.11
5780;BME280;2916;49.798;10.022;2022-09-17T00:49:05;146625.16;;;9.46;91.32
5780;BME280;2916;49.798;10.022;2022-09-17T00:51:42;146640.03;;;9.52;91.13
5780;BME280;2916;49.798;10.022;2022-09-17T00:54:11;146647.50;;;9.55;90.81
5780;BME280;2916;49.798;10.022;2022-09-17T00:56:41;146643.75;;;9.53;90.43
5780;BME280;2916;49.798;10.022;2022-09-17T00:59:09;146662.34;;;9.61;91.13
5780;BME280;2916;49.798;10.022;2022-09-17T01:01:37;146558.19;;;9.18;90.50
5780;BME280;2916;49.798;10.022;2022-09-17T01:04:04;146651.19;;;9.56;90.81
5780;BME280;2916;49.798;10.022;2022-09-17T01:06:37;146651.19;;;9.56;90.68
5780;BME280;2916;49.798;10.022;2022-09-17T01:09:25;146620.22;;;9.44;91.19
5780;BME280;2916;49.798;10.022;2022-09-17T01:12:30;146652.44;;;9.57;90.93
5780;BME280;2916;49.798;10.022;2022-09-17T01:15:19;146666.06;;;9.63;90.78
5780;BME280;2916;49.798;10.022;2022-09-17T01:18:06;146617.69;;;9.43;90.66
5780;BME280;2916;49.798;10.022;2022-09-17T01:21:34;146647.50;;;9.55;91.01
5780;BME280;2916;49.798;10.022;2022-09-17T01:24:49;146637.53;;;9.51;90.82
5780;BME280;2916;49.798;10.022;2022-09-17T01:28:09;146635.06;;;9.50;91.30
5780;BME280;2916;49.798;10.022;2022-09-17T01:31:17;146580.50;;;9.27;90.95
5780;BME280;2916;49.798;10.022;2022-09-17T01:33:58;146637.53;;;9.51;91.19
5780;BME280;2916;49.798;10.022;2022-09-17T01:36:52;146642.50;;;9.53;90.29
5780;BME280;2916;49.798;10.022;2022-09-17T01:39:34;146632.59;;;9.49;90.21
5780;BME280;2916;49.798;10.022;2022-09-17T01:42:16;146578.03;;;9.26;90.52
5780;BME280;2916;49.798;10.022;2022-09-17T01:44:54;146677.25;;;9.67;90.46
5780;BME280;2916;49.798;10.022;2022-09-17T01:47:28;146672.28;;;9.65;89.23
5780;BME280;2916;49.798;10.022;2022-09-17T01:50:04;146667.34;;;9.63;89.57
5780;BME280;2916;49.798;10.022;2022-09-17T01:52:36;146682.19;;;9.69;90.14
5780;BME280;2916;49.798;10.022;2022-09-17T01:55:10;146697.09;;;9.75;89.14
5780;BME280;2916;49.798;10.022;2022-09-17T01:57:44;146635.06;;;9.50;89.73
5780;BME280;2916;49.798;10.022;2022-09-17T02:00:14;146697.09;;;9.75;90.12
5780;BME280;2916;49.798;10.022;2022-09-17T02:02:49;146677.25;;;9.67;90.45
5780;BME280;2916;49.798;10.022;2022-09-17T02:05:27;146725.63;;;9.87;89.33
5780;BME280;2916;49.798;10.022;2022-09-17T02:08:01;146718.16;;;9.84;89.66
5780;BME280;2916;49.798;10.022;2022-09-17T02:10:35;146716.94;;;9.83;89.89
5780;BME280;2916;49.798;10.022;2022-09-17T02:13:10;146711.94;;;9.81;89.43
5780;BME280;2916;49.798;10.022;2022-09-17T02:15:47;146716.94;;;9.83;88.98
5780;BME280;2916;49.798;10.022;2022-09-17T02:18:24;146716.94;;;9.83;89.98
5780;BME280;2916;49.798;10.022;2022-09-17T02:21:04;146699.56;;;9.76;89.31
5780;BME280;2916;49.798;10.022;2022-09-17T02:23:40;146702.03;;;9.77;89.31
5780;BME280;2916;49.798;10.022;2022-09-17T02:26:15;146677.25;;;9.67;90.33
5780;BME280;2916;49.798;10.022;2022-09-17T02:28:49;146687.16;;;9.71;89.24
5780;BME280;2916;49.798;10.022;2022-09-17T02:31:19;146674.72;;;9.66;89.10
5780;BME280;2916;49.798;10.022;2022-09-17T02:33:53;146674.72;;;9.66;88.88
5780;BME280;2916;49.798;10.022;2022-09-17T02:36:25;146684.66;;;9.70;88.61
5780;BME280;2916;49.798;10.022;2022-09-17T02:38:58;146705.78;;;9.79;89.09
5780;BME280;2916;49.798;10.022;2022-09-17T02:41:41;146672.28;;;9.65;89.18
5780;BME280;2916;49.798;10.022;2022-09-17T02:44:25;146658.66;;;9.59;89.69
5780;BME280;2916;49.798;10.022;2022-09-17T02:47:43;146702.03;;;9.77;88.74
5780;BME280;2916;49.798;10.022;2022-09-17T02:50:48;146705.78;;;9.79;89.30
5780;BME280;2916;49.798;10.022;2022-09-17T02:53:35;146677.25;;;9.67;89.63
5780;BME280;2916;49.798;10.022;2022-09-17T02:56:13;146667.34;;;9.63;89.79
5780;BME280;2916;49.798;10.022;2022-09-17T02:58:50;146663.59;;;9.62;89.57
5780;BME280;2916;49.798;10.022;2022-09-17T03:01:27;146679.72;;;9.68;88.97
5780;BME280;2916;49.798;10.022;2022-09-17T03:03:58;146689.63;;;9.72;89.32
5780;BME280;2916;49.798;10.022;2022-09-17T03:06:28;146653.66;;;9.57;89.18
5780;BME280;2916;49.798;10.022;2022-09-17T03:08:56;146697.09;;;9.75;89.52
5780;BME280;2916;49.798;10.022;2022-09-17T03:11:23;146709.47;;;9.80;89.43
5780;BME280;2916;49.798;10.022;2022-09-17T03:13:50;146695.84;;;9.75;88.82
5780;BME280;2916;49.798;10.022;2022-09-17T03:16:18;146694.56;;;9.74;89.81
5780;BME280;2916;49.798;10.022;2022-09-17T03:18:45;146715.69;;;9.83;89.46
5780;BME280;2916;49.798;10.022;2022-09-17T03:21:12;146714.47;;;9.82;89.49
5780;BME280;2916;49.798;10.022;2022-09-17T03:23:41;146744.22;;;9.95;88.11
5780;BME280;2916;49.798;10.022;2022-09-17T03:26:08;146714.47;;;9.82;88.38
5780;BME280;2916;49.798;10.022;2022-09-17T03:28:35;146704.50;;;9.78;89.49
5780;BME280;2916;49.798;10.022;2022-09-17T03:31:02;146726.84;;;9.88;90.03
5780;BME280;2916;49.798;10.022;2022-09-17T03:33:30;146723.09;;;9.86;89.49
5780;BME280;2916;49.798;10.022;2022-09-17T03:35:57;146713.19;;;9.82;90.34
5780;BME280;2916;49.798;10.022;2022-09-17T03:38:25;146715.69;;;9.83;89.55
5780;BME280;2916;49.798;10.022;2022-09-17T03:41:01;146736.78;;;9.92;89.49
5780;BME280;2916;49.798;10.022;2022-09-17T03:43:29;146726.84;;;9.88;89.21
5780;BME280;2916;49.798;10.022;2022-09-17T03:45:56;146731.78;;;9.90;89.13
5780;BME280;2916;49.798;10.022;2022-09-17T03:48:23;146733.03;;;9.90;89.23
5780;BME280;2916;49.798;10.022;2022-09-17T03:50:50;146747.94;;;9.96;89.41
5780;BME280;2916;49.798;10.022;2022-09-17T03:53:17;146746.69;;;9.96;90.27
5780;BME280;2916;49.798;10.022;2022-09-17T03:55:45;146739.25;;;9.93;90.37
5780;BME280;2916;49.798;10.022;2022-09-17T03:58:13;146733.03;;;9.90;92.08
5780;BME280;2916;49.798;10.022;2022-09-17T04:00:40;146685.94;;;9.71;92.09
5780;BME280;2916;49.798;10.022;2022-09-17T04:03:07;146697.09;;;9.75;93.42
5780;BME280;2916;49.798;10.022;2022-09-17T04:05:34;146729.31;;;9.89;93.34
5780;BME280;2916;49.798;10.022;2022-09-17T04:08:02;146736.78;;;9.92;93.83
5780;BME280;2916;49.798;10.022;2022-09-17T04:10:29;146689.63;;;9.72;93.44
5780;BME280;2916;49.798;10.022;2022-09-17T04:12:56;146720.63;;;9.85;95.35
5780;BME280;2916;49.798;10.022;2022-09-17T04:15:24;146716.94;;;9.83;95.96
5780;BME280;2916;49.798;10.022;2022-09-17T04:17:55;146596.63;;;9.34;95.47
5780;BME280;2916;49.798;10.022;2022-09-17T04:20:24;146654.91;;;9.58;95.61
5780;BME280;2916;49.798;10.022;2022-09-17T04:22:51;146689.63;;;9.72;97.01
5780;BME280;2916;49.798;10.022;2022-09-17T04:25:19;146716.94;;;9.83;97.51
5780;BME280;2916;49.798;10.022;2022-09-17T04:27:46;146697.09;;;9.75;96.93
5780;BME280;2916;49.798;10.022;2022-09-17T04:30:14;146663.59;;;9.62;98.45
5780;BME280;2916;49.798;10.022;2022-09-17T04:32:44;146668.56;;;9.64;99.56
5780;BME280;2916;49.798;10.022;2022-09-17T04:35:12;146675.97;;;9.67;100.00
5780;BME280;2916;49.798;10.022;2022-09-17T04:37:39;146644.97;;;9.54;100.00
5780;BME280;2916;49.798;10.022;2022-09-17T04:40:08;146620.22;;;9.44;100.00
5780;BME280;2916;49.798;10.022;2022-09-17T04:42:35;146652.44;;;9.57;100.00
5780;BME280;2916;49.798;10.022;2022-09-17T04:45:03;146658.66;;;9.59;100.00
5780;BME280;2916;49.798;10.022;2022-09-17T04:47:30;146637.53;;;9.51;100.00
5780;BME280;2916;49.798;10.022;2022-09-17T04:49:59;146612.75;;;9.41;100.00
5780;BME280;2916;49.798;10.022;2022-09-17T04:52:26;146575.56;;;9.25;100.00
5780;BME280;2916;49.798;10.022;2022-09-17T04:54:53;146578.03;;;9.26;100.00
5780;BME280;2916;49.798;10.022;2022-09-17T04:57:20;146553.25;;;9.16;100.00
5780;BME280;2916;49.798;10.022;2022-09-17T04:59:48;146570.56;;;9.23;100.00
5780;BME280;2916;49.798;10.022;2022-09-17T05:02:15;146583.00;;;9.28;100.00
5780;BME280;2916;49.798;10.022;2022-09-17T05:04:42;146590.47;;;9.31;100.00
5780;BME280;2916;49.798;10.022;2022-09-17T05:07:11;146558.19;;;9.18;100.00
5780;BME280;2916;49.798;10.022;2022-09-17T05:09:38;146578.03;;;9.26;100.00
5780;BME280;2916;49.798;10.022;2022-09-17T05:12:05;146566.88;;;9.22;100.00
5780;BME280;2916;49.798;10.022;2022-09-17T05:14:32;146568.13;;;9.22;100.00
5780;BME280;2916;49.798;10.022;2022-09-17T05:16:59;146579.25;;;9.27;100.00
5780;BME280;2916;49.798;10.022;2022-09-17T05:19:27;146568.13;;;9.22;100.00
5780;BME280;2916;49.798;10.022;2022-09-17T05:21:54;146576.78;;;9.26;100.00
5780;BME280;2916;49.798;10.022;2022-09-17T05:24:22;146445.38;;;8.72;100.00
5780;BME280;2916;49.798;10.022;2022-09-17T05:26:49;146596.63;;;9.34;100.00
5780;BME280;2916;49.798;10.022;2022-09-17T05:29:16;146580.50;;;9.27;100.00
5780;BME280;2916;49.798;10.022;2022-09-17T05:31:44;146601.59;;;9.36;100.00
5780;BME280;2916;49.798;10.022;2022-09-17T05:34:11;146527.22;;;9.05;100.00
5780;BME280;2916;49.798;10.022;2022-09-17T05:36:38;146605.31;;;9.38;100.00
5780;BME280;2916;49.798;10.022;2022-09-17T05:39:05;146612.75;;;9.41;100.00
5780;BME280;2916;49.798;10.022;2022-09-17T05:41:34;146601.59;;;9.36;100.00
5780;BME280;2916;49.798;10.022;2022-09-17T05:44:02;146578.03;;;9.26;100.00
5780;BME280;2916;49.798;10.022;2022-09-17T05:46:29;146553.25;;;9.16;100.00
5780;BME280;2916;49.798;10.022;2022-09-17T05:48:56;146579.25;;;9.27;100.00
5780;BME280;2916;49.798;10.022;2022-09-17T05:51:24;146563.19;;;9.20;100.00
5780;BME280;2916;49.798;10.022;2022-09-17T05:53:53;146575.56;;;9.25;100.00
5780;BME280;2916;49.798;10.022;2022-09-17T05:56:21;146563.19;;;9.20;100.00
5780;BME280;2916;49.798;10.022;2022-09-17T05:58:54;146618.97;;;9.43;100.00
5780;BME280;2916;49.798;10.022;2022-09-17T06:01:21;146625.16;;;9.46;100.00
5780;BME280;2916;49.798;10.022;2022-09-17T06:03:49;146615.22;;;9.42;100.00
5780;BME280;2916;49.798;10.022;2022-09-17T06:06:16;146621.44;;;9.44;100.00
5780;BME280;2916;49.798;10.022;2022-09-17T06:08:43;146575.56;;;9.25;100.00
5780;BME280;2916;49.798;10.022;2022-09-17T06:11:10;146618.97;;;9.43;100.00
5780;BME280;2916;49.798;10.022;2022-09-17T06:13:37;146625.16;;;9.46;100.00
5780;BME280;2916;49.798;10.022;2022-09-17T06:16:06;146637.53;;;9.51;100.00
5780;BME280;2916;49.798;10.022;2022-09-17T06:18:33;146632.59;;;9.49;100.00
5780;BME280;2916;49.798;10.022;2022-09-17T06:21:02;146630.13;;;9.48;100.00
5780;BME280;2916;49.798;10.022;2022-09-17T06:23:32;146590.47;;;9.31;100.00
5780;BME280;2916;49.798;10.022;2022-09-17T06:26:02;146659.88;;;9.60;100.00
5780;BME280;2916;49.798;10.022;2022-09-17T06:28:31;146679.72;;;9.68;100.00
5780;BME280;2916;49.798;10.022;2022-09-17T06:31:00;146685.94;;;9.71;100.00
5780;BME280;2916;49.798;10.022;2022-09-17T06:33:30;146669.81;;;9.64;100.00
5780;BME280;2916;49.798;10.022;2022-09-17T06:35:57;146646.22;;;9.54;100.00
5780;BME280;2916;49.798;10.022;2022-09-17T06:38:25;146662.34;;;9.61;100.00
5780;BME280;2916;49.798;10.022;2022-09-17T06:40:53;146690.88;;;9.73;100.00
5780;BME280;2916;49.798;10.022;2022-09-17T06:43:21;146693.34;;;9.74;100.00
5780;BME280;2916;49.798;10.022;2022-09-17T06:45:51;146692.09;;;9.73;100.00
5780;BME280;2916;49.798;10.022;2022-09-17T06:48:18;146724.38;;;9.87;100.00
5780;BME280;2916;49.798;10.022;2022-09-17T06:50:47;146718.16;;;9.84;100.00
5780;BME280;2916;49.798;10.022;2022-09-17T06:53:14;146723.09;;;9.86;100.00
5780;BME280;2916;49.798;10.022;2022-09-17T06:55:42;146620.22;;;9.44;100.00
5780;BME280;2916;49.798;10.022;2022-09-17T06:58:09;146704.50;;;9.78;100.00
5780;BME280;2916;49.798;10.022;2022-09-17T07:00:36;146726.84;;;9.88;100.00
5780;BME280;2916;49.798;10.022;2022-09-17T07:03:03;146749.16;;;9.97;100.00
5780;BME280;2916;49.798;10.022;2022-09-17T07:05:30;146764.06;;;10.03;100.00
5780;BME280;2916;49.798;10.022;2022-09-17T07:08:02;146761.56;;;10.02;100.00
5780;BME280;2916;49.798;10.022;2022-09-17T07:10:31;146769.00;;;10.05;100.00
5780;BME280;2916;49.798;10.022;2022-09-17T07:12:58;146885.66;;;10.53;100.00
5780;BME280;2916;49.798;10.022;2022-09-17T07:15:25;146945.28;;;10.77;99.85
5780;BME280;2916;49.798;10.022;2022-09-17T07:17:52;146930.34;;;10.71;100.00
5780;BME280;2916;49.798;10.022;2022-09-17T07:20:19;146847.22;;;10.37;98.23
5780;BME280;2916;49.798;10.022;2022-09-17T07:22:54;147001.13;;;11.00;98.45
5780;BME280;2916;49.798;10.022;2022-09-17T07:25:24;146950.22;;;10.79;97.30
5780;BME280;2916;49.798;10.022;2022-09-17T07:27:52;147017.25;;;11.07;97.58
5780;BME280;2916;49.798;10.022;2022-09-17T07:30:20;147080.56;;;11.33;96.06
5780;BME280;2916;49.798;10.022;2022-09-17T07:32:47;147126.53;;;11.52;94.98
5780;BME280;2916;49.798;10.022;2022-09-17T07:35:14;147114.06;;;11.47;95.30
5780;BME280;2916;49.798;10.022;2022-09-17T07:37:42;147196.06;;;11.80;94.08
5780;BME280;2916;49.798;10.022;2022-09-17T07:40:09;147243.31;;;12.00;92.28
5780;BME280;2916;49.798;10.022;2022-09-17T07:42:38;147261.94;;;12.08;90.08
5780;BME280;2916;49.798;10.022;2022-09-17T07:45:06;147220.97;;;11.91;90.68
5780;BME280;2916;49.798;10.022;2022-09-17T07:47:38;147320.31;;;12.32;89.16
5780;BME280;2916;49.798;10.022;2022-09-17T07:50:08;147247.00;;;12.01;89.77
5780;BME280;2916;49.798;10.022;2022-09-17T07:52:35;147250.78;;;12.03;89.83
5780;BME280;2916;49.798;10.022;2022-09-17T07:55:03;147264.41;;;12.09;88.10
5780;BME280;2916;49.798;10.022;2022-09-17T07:57:30;147260.72;;;12.07;88.59
5780;BME280;2916;49.798;10.022;2022-09-17T07:59:58;147305.41;;;12.25;88.06
5780;BME280;2916;49.798;10.022;2022-09-17T08:02:25;147319.09;;;12.31;87.07
5780;BME280;2916;49.798;10.022;2022-09-17T08:04:53;147342.69;;;12.41;87.40
5780;BME280;2916;49.798;10.022;2022-09-17T08:07:20;147414.78;;;12.70;86.94
5780;BME280;2916;49.798;10.022;2022-09-17T08:09:47;147337.72;;;12.39;86.12
5780;BME280;2916;49.798;10.022;2022-09-17T08:12:14;147278.06;;;12.14;87.21
5780;BME280;2916;49.798;10.022;2022-09-17T08:14:43;147347.66;;;12.43;87.33
5780;BME280;2916;49.798;10.022;2022-09-17T08:17:11;147389.91;;;12.60;86.75
5780;BME280;2916;49.798;10.022;2022-09-17T08:19:38;147403.59;;;12.66;86.36
5780;BME280;2916;49.798;10.022;2022-09-17T08:22:05;147401.06;;;12.65;85.35
5780;BME280;2916;49.798;10.022;2022-09-17T08:24:33;147367.56;;;12.51;85.45
5780;BME280;2916;49.798;10.022;2022-09-17T08:27:00;147335.22;;;12.38;85.19
5780;BME280;2916;49.798;10.022;2022-09-17T08:29:27;147333.97;;;12.37;84.29
5780;BME280;2916;49.798;10.022;2022-09-17T08:31:54;147399.84;;;12.64;84.79
5780;BME280;2916;49.798;10.022;2022-09-17T08:34:22;147454.53;;;12.87;84.53
5780;BME280;2916;49.798;10.022;2022-09-17T08:36:50;147486.84;;;13.00;83.30
5780;BME280;2916;49.798;10.022;2022-09-17T08:39:17;147465.72;;;12.91;83.21
5780;BME280;2916;49.798;10.022;2022-09-17T08:41:51;147551.53;;;13.26;82.07
5780;BME280;2916;49.798;10.022;2022-09-17T08:44:25;147692.06;;;13.84;80.26
5780;BME280;2916;49.798;10.022;2022-09-17T08:46:59;147832.59;;;14.42;79.03
5780;BME280;2916;49.798;10.022;2022-09-17T08:49:47;147913.56;;;14.75;78.11
5780;BME280;2916;49.798;10.022;2022-09-17T08:52:51;147887.41;;;14.64;77.26
5780;BME280;2916;49.798;10.022;2022-09-17T08:55:36;147892.41;;;14.66;77.54
5780;BME280;2916;49.798;10.022;2022-09-17T08:58:44;147746.75;;;14.07;76.02
5780;BME280;2916;49.798;10.022;2022-09-17T09:01:27;147790.31;;;14.24;75.73
5780;BME280;2916;49.798;10.022;2022-09-17T09:04:19;147693.31;;;13.85;76.15
5780;BME280;2916;49.798;10.022;2022-09-17T09:06:57;147719.44;;;13.95;77.22
5780;BME280;2916;49.798;10.022;2022-09-17T09:09:34;147651.00;;;13.67;77.75
5780;BME280;2916;49.798;10.022;2022-09-17T09:12:09;147648.53;;;13.66;77.41
5780;BME280;2916;49.798;10.022;2022-09-17T09:14:47;147639.81;;;13.63;76.49
5780;BME280;2916;49.798;10.022;2022-09-17T09:17:21;147777.91;;;14.19;76.64
5780;BME280;2916;49.798;10.022;2022-09-17T09:19:52;147782.84;;;14.21;73.98
5780;BME280;2916;49.798;10.022;2022-09-17T09:22:44;147720.66;;;13.96;73.54
5780;BME280;2916;49.798;10.022;2022-09-17T09:25:22;147745.53;;;14.06;74.35
5780;BME280;2916;49.798;10.022;2022-09-17T09:28:15;147693.31;;;13.85;75.13
5780;BME280;2916;49.798;10.022;2022-09-17T09:31:00;147723.16;;;13.97;73.55
5780;BME280;2916;49.798;10.022;2022-09-17T09:33:32;147760.47;;;14.12;72.25
5780;BME280;2916;49.798;10.022;2022-09-17T09:36:05;147775.38;;;14.18;71.86
5780;BME280;2916;49.798;10.022;2022-09-17T09:38:41;147744.28;;;14.06;72.36
5780;BME280;2916;49.798;10.022;2022-09-17T09:41:12;147765.41;;;14.14;73.65
5780;BME280;2916;49.798;10.022;2022-09-17T09:43:45;147741.81;;;14.05;73.12
5780;BME280;2916;49.798;10.022;2022-09-17T09:46:44;147789.09;;;14.24;72.32
5780;BME280;2916;49.798;10.022;2022-09-17T09:49:43;147888.66;;;14.65;71.76
5780;BME280;2916;49.798;10.022;2022-09-17T09:52:30;147952.13;;;14.91;71.06
5780;BME280;2916;49.798;10.022;2022-09-17T09:55:27;147919.78;;;14.78;69.07
5780;BME280;2916;49.798;10.022;2022-09-17T09:58:05;147964.56;;;14.96;68.73
5780;BME280;2916;49.798;10.022;2022-09-17T10:00:40;147833.88;;;14.42;68.29
5780;BME280;2916;49.798;10.022;2022-09-17T10:03:14;147945.91;;;14.88;69.40
5780;BME280;2916;49.798;10.022;2022-09-17T10:05:54;147987.00;;;15.05;69.80
5780;BME280;2916;49.798;10.022;2022-09-17T10:08:22;148075.38;;;15.41;69.96
5780;BME280;2916;49.798;10.022;2022-09-17T10:10:58;147965.81;;;14.96;68.67
5780;BME280;2916;49.798;10.022;2022-09-17T10:13:29;147898.59;;;14.69;68.97
5780;BME280;2916;49.798;10.022;2022-09-17T10:16:16;148025.59;;;15.21;69.89
5780;BME280;2916;49.798;10.022;2022-09-17T10:18:44;147996.97;;;15.09;68.74
5780;BME280;2916;49.798;10.022;2022-09-17T10:21:20;147939.72;;;14.86;68.27
5780;BME280;2916;49.798;10.022;2022-09-17T10:23:48;147926.00;;;14.80;68.00
5780;BME280;2916;49.798;10.022;2022-09-17T10:26:26;147947.13;;;14.89;68.82
5780;BME280;2916;49.798;10.022;2022-09-17T10:28:56;147882.47;;;14.62;68.06
5780;BME280;2916;49.798;10.022;2022-09-17T10:31:24;147894.88;;;14.67;68.22
5780;BME280;2916;49.798;10.022;2022-09-17T10:33:56;147924.75;;;14.80;67.51
5780;BME280;2916;49.798;10.022;2022-09-17T10:36:40;147927.22;;;14.81;67.89
5780;BME280;2916;49.798;10.022;2022-09-17T10:39:31;148026.84;;;15.21;67.08
5780;BME280;2916;49.798;10.022;2022-09-17T10:42:03;148026.84;;;15.21;67.34
5780;BME280;2916;49.798;10.022;2022-09-17T10:44:32;148122.69;;;15.61;67.67
5780;BME280;2916;49.798;10.022;2022-09-17T10:47:10;148153.88;;;15.74;65.57
5780;BME280;2916;49.798;10.022;2022-09-17T10:49:41;148197.44;;;15.91;66.01
5780;BME280;2916;49.798;10.022;2022-09-17T10:52:23;148201.19;;;15.93;66.64
5780;BME280;2916;49.798;10.022;2022-09-17T10:55:14;148241.03;;;16.09;66.18
5780;BME280;2916;49.798;10.022;2022-09-17T10:58:07;148260.97;;;16.17;65.65
5780;BME280;2916;49.798;10.022;2022-09-17T11:00:51;148272.19;;;16.22;66.16
5780;BME280;2916;49.798;10.022;2022-09-17T11:04:02;148212.41;;;15.98;70.04
5780;BME280;2916;49.798;10.022;2022-09-17T11:07:16;147821.41;;;14.37;75.12
5780;BME280;2916;49.798;10.022;2022-09-17T11:09:56;147817.69;;;14.36;77.31
5780;BME280;2916;49.798;10.022;2022-09-17T11:12:56;147769.19;;;14.16;78.57
5780;BME280;2916;49.798;10.022;2022-09-17T11:15:42;147709.50;;;13.91;78.17
5780;BME280;2916;49.798;10.022;2022-09-17T11:18:36;147787.84;;;14.23;78.87
5780;BME280;2916;49.798;10.022;2022-09-17T11:21:39;147759.22;;;14.12;79.74
5780;BME280;2916;49.798;10.022;2022-09-17T11:24:45;147795.31;;;14.27;80.26
5780;BME280;2916;49.798;10.022;2022-09-17T11:27:45;147817.69;;;14.36;79.71
5780;BME280;2916;49.798;10.022;2022-09-17T11:30:19;147858.78;;;14.53;77.64
5780;BME280;2916;49.798;10.022;2022-09-17T11:33:25;147968.34;;;14.97;78.82
5780;BME280;2916;49.798;10.022;2022-09-17T11:35:58;147853.84;;;14.51;76.98
5780;BME280;2916;49.798;10.022;2022-09-17T11:38:38;148011.88;;;15.15;76.91
5780;BME280;2916;49.798;10.022;2022-09-17T11:41:10;148064.19;;;15.37;76.76
5780;BME280;2916;49.798;10.022;2022-09-17T11:43:41;147979.53;;;15.02;71.13
5780;BME280;2916;49.798;10.022;2022-09-17T11:46:20;147995.69;;;15.09;71.13
5780;BME280;2916;49.798;10.022;2022-09-17T11:48:57;148054.22;;;15.33;70.97
5780;BME280;2916;49.798;10.022;2022-09-17T11:51:32;148208.69;;;15.96;71.52
5780;BME280;2916;49.798;10.022;2022-09-17T11:54:07;148176.28;;;15.83;68.72
5780;BME280;2916;49.798;10.022;2022-09-17T11:56:46;148181.28;;;15.85;70.09
5780;BME280;2916;49.798;10.022;2022-09-17T11:59:25;147970.81;;;14.98;68.51
5780;BME280;2916;49.798;10.022;2022-09-17T12:01:59;147987.00;;;15.05;70.55
5780;BME280;2916;49.798;10.022;2022-09-17T12:04:42;147902.38;;;14.70;71.80
5780;BME280;2916;49.798;10.022;2022-09-17T12:07:24;147749.28;;;14.08;76.29
5780;BME280;2916;49.798;10.022;2022-09-17T12:09:59;147642.34;;;13.64;79.08
5780;BME280;2916;49.798;10.022;2022-09-17T12:12:30;147489.34;;;13.01;81.93
5780;BME280;2916;49.798;10.022;2022-09-17T12:15:05;147445.84;;;12.83;83.63
5780;BME280;2916;49.798;10.022;2022-09-17T12:17:40;147367.56;;;12.51;82.87
5780;BME280;2916;49.798;10.022;2022-09-17T12:20:23;147315.34;;;12.29;83.68
5780;BME280;2916;49.798;10.022;2022-09-17T12:22:56;147389.91;;;12.60;84.29
5780;BME280;2916;49.798;10.022;2022-09-17T12:25:29;147448.31;;;12.84;84.62
5780;BME280;2916;49.798;10.022;2022-09-17T12:28:06;147491.81;;;13.02;84.70
5780;BME280;2916;49.798;10.022;2022-09-17T12:30:43;147560.25;;;13.30;84.57
5780;BME280;2916;49.798;10.022;2022-09-17T12:33:25;147606.25;;;13.49;85.35
5780;BME280;2916;49.798;10.022;2022-09-17T12:36:28;147648.53;;;13.66;84.63
5780;BME280;2916;49.798;10.022;2022-09-17T12:39:54;147685.84;;;13.82;84.98
5780;BME280;2916;49.798;10.022;2022-09-17T12:42:47;147795.31;;;14.27;84.25
5780;BME280;2916;49.798;10.022;2022-09-17T12:45:54;147775.38;;;14.18;83.46
5780;BME280;2916;49.798;10.022;2022-09-17T12:49:07;147762.94;;;14.13;80.51
5780;BME280;2916;49.798;10.022;2022-09-17T12:51:53;147715.69;;;13.94;79.56
5780;BME280;2916;49.798;10.022;2022-09-17T12:54:52;147680.88;;;13.80;76.68
5780;BME280;2916;49.798;10.022;2022-09-17T12:57:33;147521.66;;;13.14;78.25
5780;BME280;2916;49.798;10.022;2022-09-17T13:00:09;147514.19;;;13.11;77.01
5780;BME280;2916;49.798;10.022;2022-09-17T13:02:41;147609.97;;;13.50;76.96
5780;BME280;2916;49.798;10.022;2022-09-17T13:05:49;147633.63;;;13.60;74.74
5780;BME280;2916;49.798;10.022;2022-09-17T13:08:59;147688.31;;;13.83;74.84
5780;BME280;2916;49.798;10.022;2022-09-17T13:15:22;147622.41;;;13.56;72.43
5780;BME280;2916;49.798;10.022;2022-09-17T13:18:02;147713.19;;;13.93;71.05
5780;BME280;2916;49.798;10.022;2022-09-17T13:20:40;147754.25;;;14.10;71.08
5780;BME280;2916;49.798;10.022;2022-09-17T13:23:11;147685.84;;;13.82;69.64
5780;BME280;2916;49.798;10.022;2022-09-17T13:25:49;147703.25;;;13.89;69.59
5780;BME280;2916;49.798;10.022;2022-09-17T13:28:18;147740.56;;;14.04;70.38
5780;BME280;2916;49.798;10.022;2022-09-17T13:30:57;147740.56;;;14.04;68.86
5780;BME280;2916;49.798;10.022;2022-09-17T13:33:54;147821.41;;;14.37;69.73
5780;BME280;2916;49.798;10.022;2022-09-17T13:36:42;147850.06;;;14.49;69.43
5780;BME280;2916;49.798;10.022;2022-09-17T13:39:35;147847.56;;;14.48;66.38
5780;BME280;2916;49.798;10.022;2022-09-17T13:42:11;147882.47;;;14.62;65.94
5780;BME280;2916;49.798;10.022;2022-09-17T13:44:45;147889.91;;;14.65;66.58
5780;BME280;2916;49.798;10.022;2022-09-17T13:47:20;147823.94;;;14.38;66.11
5780;BME280;2916;49.798;10.022;2022-09-17T13:49:53;147813.94;;;14.34;63.81